Time;durP1;ratioP1;P1;durP2;ratioP2;P2;SDS_P1;SDS_P2;PMS_P1;PMS_P2;Temp;Humidity;BMP_temperature;BMP_pressure;BME280_temperature;BME280_humidity;BME280_pressure;Samples;Min_cycle;Max_cycle;Signal;HPM_P1;HPM_P2
2022/08/08 00:01:37;;;;;;;1.93;1.83;;;17.50;91.80;;;;;;4942020;28;20447;-91
2022/08/08 00:04:11;;;;;;;2.00;1.90;;;17.40;91.90;;;;;;4936775;28;20532;-93
2022/08/08 00:06:48;;;;;;;2.50;2.30;;;17.40;92.30;;;;;;4944324;28;20796;-92
2022/08/08 00:09:27;;;;;;;2.10;2.00;;;17.30;93.20;;;;;;4930831;28;20535;-91
2022/08/08 00:12:06;;;;;;;2.13;1.83;;;18.20;94.20;;;;;;4933811;28;20468;-90
2022/08/08 00:14:57;;;;;;;2.33;2.23;;;17.30;93.80;;;;;;4951772;28;20453;-92
2022/08/08 00:17:28;;;;;;;2.60;2.40;;;16.90;94.00;;;;;;4940088;28;20885;-93
2022/08/08 00:20:04;;;;;;;2.70;2.50;;;17.80;95.40;;;;;;4930832;28;20835;-93
2022/08/08 00:22:43;;;;;;;2.10;2.00;;;17.40;95.00;;;;;;4946836;28;20471;-94
2022/08/08 00:25:23;;;;;;;2.70;2.50;;;17.00;94.80;;;;;;4950598;28;20444;-94
2022/08/08 00:27:53;;;;;;;2.07;1.97;;;17.30;94.80;;;;;;4944359;28;21098;-91
2022/08/08 00:30:35;;;;;;;2.23;2.07;;;17.70;94.40;;;;;;4931132;28;21081;-92
2022/08/08 00:33:21;;;;;;;2.57;2.37;;;17.80;94.20;;;;;;4925721;28;20441;-92
2022/08/08 00:36:02;;;;;;;2.90;2.37;;;17.20;93.50;;;;;;4947478;28;20460;-93
2022/08/08 00:38:34;;;;;;;2.53;2.33;;;17.10;93.80;;;;;;4946525;28;20481;-94
2022/08/08 00:41:27;;;;;;;2.50;2.30;;;17.10;94.80;;;;;;4951270;28;20440;-93
2022/08/08 00:44:07;;;;;;;2.30;2.20;;;17.20;94.60;;;;;;4951390;28;21150;-93
2022/08/08 00:47:08;;;;;;;2.10;2.00;;;17.20;94.70;;;;;;4923043;28;20457;-90
2022/08/08 00:50:11;;;;;;;2.20;2.10;;;17.10;94.30;;;;;;4948205;28;20571;-91
2022/08/08 00:52:48;;;;;;;1.80;1.70;;;17.00;94.70;;;;;;4950174;28;20480;-90
2022/08/08 00:55:55;;;;;;;2.20;1.93;;;16.90;94.90;;;;;;4937526;28;20434;-90
2022/08/08 00:58:40;;;;;;;2.67;2.47;;;17.20;95.30;;;;;;4950082;28;20476;-92
2022/08/08 01:01:15;;;;;;;2.37;2.20;;;16.80;95.60;;;;;;4948418;28;21091;-92
2022/08/08 01:03:59;;;;;;;2.50;2.30;;;16.90;95.80;;;;;;4947968;28;20445;-91
2022/08/08 01:06:37;;;;;;;2.50;2.40;;;16.80;96.30;;;;;;4945420;28;20442;-90
2022/08/08 01:09:22;;;;;;;2.93;2.67;;;16.00;96.30;;;;;;4917034;28;20470;-90
2022/08/08 01:12:32;;;;;;;2.73;2.53;;;16.60;96.70;;;;;;4934517;28;20995;-91
2022/08/08 01:15:19;;;;;;;2.43;2.27;;;16.60;97.80;;;;;;4943314;28;21239;-91
2022/08/08 01:18:08;;;;;;;2.50;2.30;;;15.90;97.70;;;;;;4946013;28;21860;-91
2022/08/08 01:20:40;;;;;;;3.00;2.80;;;17.50;99.80;;;;;;4945305;28;20819;-91
2022/08/08 01:23:08;;;;;;;3.33;3.03;;;16.90;99.90;;;;;;4944678;28;20445;-91
2022/08/08 01:25:54;;;;;;;2.40;2.20;;;15.80;99.90;;;;;;4922019;28;20447;-91
2022/08/08 01:29:01;;;;;;;3.17;2.70;;;15.30;99.90;;;;;;4944357;28;20474;-92
2022/08/08 01:32:05;;;;;;;2.80;2.60;;;15.80;99.90;;;;;;4919004;28;20437;-92
2022/08/08 01:34:58;;;;;;;3.00;2.80;;;15.80;99.90;;;;;;4938326;28;20509;-92
2022/08/08 01:37:49;;;;;;;2.77;2.60;;;15.70;99.90;;;;;;4925338;28;21161;-93
2022/08/08 01:40:52;;;;;;;2.97;2.70;;;15.70;99.90;;;;;;4948907;28;20445;-91
2022/08/08 01:43:57;;;;;;;3.43;2.50;;;15.60;99.90;;;;;;4923709;28;20440;-92
2022/08/08 01:46:56;;;;;;;2.93;2.70;;;15.50;99.90;;;;;;4938817;28;20490;-92
2022/08/08 01:49:53;;;;;;;2.67;2.47;;;15.40;99.90;;;;;;4945366;28;20469;-91
2022/08/08 01:52:36;;;;;;;3.10;2.90;;;15.30;99.90;;;;;;4946958;28;20530;-91
2022/08/08 01:55:28;;;;;;;2.70;2.40;;;15.40;99.90;;;;;;4937153;28;20525;-91
2022/08/08 01:58:15;;;;;;;3.90;3.50;;;15.90;99.90;;;;;;4941017;28;20528;-92
2022/08/08 02:01:08;;;;;;;2.97;2.77;;;15.30;99.90;;;;;;4943612;28;20454;-90
2022/08/08 02:04:18;;;;;;;3.97;3.67;;;15.20;99.90;;;;;;4941192;28;20888;-92
2022/08/08 02:07:02;;;;;;;3.80;3.50;;;15.20;99.90;;;;;;4948221;28;24390;-92
2022/08/08 02:09:36;;;;;;;3.20;2.90;;;15.90;99.90;;;;;;4945435;28;20438;-91
2022/08/08 02:12:12;;;;;;;3.27;2.97;;;15.10;99.90;;;;;;4936244;28;20782;-92
2022/08/08 02:14:49;;;;;;;3.53;3.23;;;15.40;99.90;;;;;;4925975;28;20843;-91
2022/08/08 02:17:24;;;;;;;3.60;3.30;;;15.80;99.90;;;;;;4937659;28;20472;-91
2022/08/08 02:20:14;;;;;;;2.97;2.77;;;13.90;99.90;;;;;;4922745;28;20528;-91
2022/08/08 02:22:52;;;;;;;3.50;3.10;;;15.20;99.90;;;;;;4940320;28;20473;-90
2022/08/08 02:25:21;;;;;;;3.40;3.20;;;14.70;99.90;;;;;;4937007;28;21347;-91
2022/08/08 02:28:18;;;;;;;3.37;3.07;;;14.90;99.90;;;;;;4936149;28;20442;-90
2022/08/08 02:31:11;;;;;;;3.70;3.40;;;15.70;99.90;;;;;;4938299;28;20529;-91
2022/08/08 02:34:05;;;;;;;4.43;3.13;;;14.70;99.90;;;;;;4944706;28;20453;-91
2022/08/08 02:36:57;;;;;;;3.00;2.73;;;14.50;99.90;;;;;;4937860;28;20484;-91
2022/08/08 02:40:10;;;;;;;3.70;3.13;;;14.50;99.90;;;;;;4920877;28;20534;-91
2022/08/08 02:43:02;;;;;;;3.30;3.10;;;14.50;99.90;;;;;;4943210;28;20810;-91
2022/08/08 02:46:12;;;;;;;4.87;3.00;;;14.50;99.90;;;;;;4942519;28;20443;-91
2022/08/08 02:49:13;;;;;;;3.50;3.30;;;14.60;99.90;;;;;;4923282;28;20471;-91
2022/08/08 02:51:59;;;;;;;3.47;3.27;;;14.80;99.90;;;;;;4943402;28;20467;-92
2022/08/08 02:54:48;;;;;;;3.63;3.30;;;15.00;99.90;;;;;;4904819;28;20537;-91
2022/08/08 02:57:46;;;;;;;3.27;2.97;;;16.00;99.90;;;;;;4941750;28;20557;-90
2022/08/08 03:00:36;;;;;;;3.50;3.30;;;15.00;99.90;;;;;;4952926;28;20485;-92
2022/08/08 03:03:26;;;;;;;3.83;2.90;;;15.10;99.90;;;;;;4923055;28;20492;-91
2022/08/08 03:06:03;;;;;;;3.10;2.90;;;15.00;99.90;;;;;;4928007;28;20536;-90
2022/08/08 03:09:02;;;;;;;3.17;2.90;;;15.80;99.90;;;;;;4932791;28;20811;-90
2022/08/08 03:11:46;;;;;;;3.73;3.43;;;15.40;99.90;;;;;;4937953;28;20451;-94
2022/08/08 03:14:46;;;;;;;2.70;2.53;;;15.10;99.90;;;;;;4940326;28;21585;-91
2022/08/08 03:17:25;;;;;;;2.80;2.63;;;15.20;99.90;;;;;;4936559;28;20447;-91
2022/08/08 03:20:05;;;;;;;3.60;3.30;;;15.10;99.90;;;;;;4933935;28;20489;-89
2022/08/08 03:22:32;;;;;;;3.30;2.93;;;15.20;99.90;;;;;;4929429;28;20509;-91
2022/08/08 03:25:04;;;;;;;4.30;3.20;;;14.90;99.90;;;;;;4917486;28;20842;-90
2022/08/08 03:27:40;;;;;;;3.50;3.20;;;14.80;99.90;;;;;;4947169;28;20913;-91
2022/08/08 03:30:11;;;;;;;4.37;3.33;;;14.60;99.90;;;;;;4944086;28;20541;-90
2022/08/08 03:35:24;;;;;;;3.70;2.90;;;14.00;99.90;;;;;;4936820;28;20912;-89
2022/08/08 03:37:50;;;;;;;5.43;2.97;;;14.10;99.90;;;;;;4942599;28;20588;-90
2022/08/08 03:40:19;;;;;;;3.43;2.97;;;13.90;99.90;;;;;;4933826;28;20493;-91
2022/08/08 03:42:45;;;;;;;3.00;2.80;;;13.60;99.90;;;;;;4924939;28;20448;-91
2022/08/08 03:45:21;;;;;;;2.80;2.60;;;13.70;99.90;;;;;;4947630;28;20438;-90
2022/08/08 03:48:04;;;;;;;2.90;2.70;;;13.70;99.90;;;;;;4945905;28;20454;-91
2022/08/08 03:50:31;;;;;;;3.37;2.93;;;13.70;99.90;;;;;;4944400;28;20464;-90
2022/08/08 03:53:11;;;;;;;2.97;2.77;;;13.80;99.90;;;;;;4933467;28;20852;-91
2022/08/08 03:55:41;;;;;;;3.13;2.93;;;13.60;99.90;;;;;;4922421;28;20437;-91
2022/08/08 03:58:07;;;;;;;2.93;2.70;;;13.60;99.90;;;;;;4934685;28;20466;-90
2022/08/08 04:00:35;;;;;;;3.20;3.00;;;13.60;99.90;;;;;;4931350;28;21019;-91
2022/08/08 04:03:03;;;;;;;3.20;3.00;;;14.10;99.90;;;;;;4918286;28;20963;-90
2022/08/08 04:05:45;;;;;;;2.93;2.60;;;13.80;99.90;;;;;;4943850;28;20801;-91
2022/08/08 04:08:20;;;;;;;2.87;2.67;;;12.50;99.90;;;;;;4925481;28;20446;-95
2022/08/08 04:10:48;;;;;;;2.87;2.67;;;13.80;99.90;;;;;;4943001;28;20453;-95
2022/08/08 04:13:14;;;;;;;3.10;2.80;;;13.90;99.90;;;;;;4927541;28;20446;-94
2022/08/08 04:15:40;;;;;;;3.43;3.13;;;13.20;99.90;;;;;;4932073;28;20486;-95
2022/08/08 04:18:06;;;;;;;2.90;2.70;;;14.50;99.90;;;;;;4940588;28;20498;-93
2022/08/08 04:20:31;;;;;;;3.17;2.87;;;13.70;99.90;;;;;;4939640;28;20197;-94
2022/08/08 04:22:57;;;;;;;3.10;2.90;;;13.80;99.90;;;;;;4928427;28;20187;-94
2022/08/08 04:25:23;;;;;;;4.30;3.03;;;13.80;99.90;;;;;;4925364;28;20183;-96
2022/08/08 04:27:49;;;;;;;2.83;2.47;;;14.50;99.90;;;;;;4935921;28;20270;-91
2022/08/08 04:30:20;;;;;;;3.07;2.80;;;13.60;99.90;;;;;;4940755;28;20171;-96
2022/08/08 04:32:46;;;;;;;3.27;3.07;;;13.70;99.90;;;;;;4945636;29;20219;-95
2022/08/08 04:35:12;;;;;;;2.90;2.70;;;13.70;99.90;;;;;;4931320;28;20785;-94
2022/08/08 04:37:38;;;;;;;3.27;2.97;;;13.10;99.90;;;;;;4939006;28;20956;-94
2022/08/08 04:40:04;;;;;;;3.30;3.00;;;14.10;99.90;;;;;;4940195;28;20203;-94
2022/08/08 04:42:32;;;;;;;3.40;3.00;;;13.80;99.90;;;;;;4953497;28;20198;-95
2022/08/08 04:45:04;;;;;;;3.33;3.13;;;13.90;99.90;;;;;;4946962;28;20845;-93
2022/08/08 04:47:33;;;;;;;3.27;2.97;;;13.80;99.90;;;;;;4937919;29;20465;-92
2022/08/08 04:49:59;;;;;;;3.40;3.20;;;13.40;99.90;;;;;;4955515;28;20537;-94
2022/08/08 04:52:24;;;;;;;3.00;2.80;;;13.60;99.90;;;;;;4938430;28;20473;-96
2022/08/08 04:54:50;;;;;;;3.40;3.20;;;13.60;99.90;;;;;;4953129;28;20191;-93
2022/08/08 04:57:18;;;;;;;3.30;3.07;;;13.80;99.90;;;;;;4954651;28;20186;-96
2022/08/08 04:59:44;;;;;;;3.57;2.90;;;14.10;99.90;;;;;;4949528;28;20217;-96
2022/08/08 05:02:32;;;;;;;;;;;;;;;;;;;;;
2022/08/08 05:05:01;;;;;;;2.97;2.73;;;15.40;99.90;;;;;;4952423;28;20195;-96
2022/08/08 05:07:27;;;;;;;2.60;2.43;;;14.70;99.90;;;;;;4932371;29;20731;-94
2022/08/08 05:09:59;;;;;;;2.67;2.47;;;15.30;99.90;;;;;;4930254;28;20443;-96
2022/08/08 05:12:33;;;;;;;2.80;2.50;;;15.40;99.90;;;;;;4933482;28;20457;-96
2022/08/08 05:14:59;;;;;;;2.50;2.33;;;15.00;99.90;;;;;;4946242;28;20442;-95
2022/08/08 05:17:24;;;;;;;2.93;2.73;;;15.00;99.90;;;;;;4933672;28;20440;-95
2022/08/08 05:19:50;;;;;;;2.63;2.43;;;15.20;99.90;;;;;;4955870;28;20234;-94
2022/08/08 05:22:16;;;;;;;2.70;2.50;;;15.50;99.90;;;;;;4938292;28;20183;-95
2022/08/08 05:24:41;;;;;;;4.57;3.43;;;14.90;99.90;;;;;;4947515;28;20183;-94
2022/08/08 05:33:31;;;;;;;3.23;3.00;;;15.10;99.90;;;;;;4966869;28;20525;-93
2022/08/08 05:36:15;;;;;;;3.33;3.03;;;15.60;99.90;;;;;;4955857;28;20461;-95
2022/08/08 05:38:49;;;;;;;3.77;3.47;;;15.90;99.90;;;;;;4959084;28;20218;-95
2022/08/08 05:41:48;;;;;;;3.67;3.27;;;15.60;99.90;;;;;;4950420;28;20437;-95
2022/08/08 05:44:35;;;;;;;112.63;101.17;;;15.60;99.90;;;;;;4955253;28;20452;-95
2022/08/08 05:53:11;;;;;;;3.10;2.97;;;16.20;99.90;;;;;;4944799;28;20439;-89
2022/08/08 05:55:40;;;;;;;3.60;3.30;;;15.90;99.90;;;;;;4924444;28;20455;-95
2022/08/08 05:58:07;;;;;;;3.50;3.20;;;16.00;99.90;;;;;;4923548;28;20211;-95
2022/08/08 06:00:33;;;;;;;4.27;3.40;;;16.00;99.90;;;;;;4922408;28;20458;-93
2022/08/08 06:03:10;;;;;;;3.00;2.80;;;16.40;99.90;;;;;;4922310;28;20442;-93
2022/08/08 06:05:44;;;;;;;3.50;3.20;;;16.60;99.90;;;;;;4922960;28;20450;-92
2022/08/08 06:08:12;;;;;;;3.47;3.17;;;16.70;99.90;;;;;;4921121;28;20873;-92
2022/08/08 06:10:39;;;;;;;3.63;3.20;;;16.70;99.90;;;;;;4951600;28;20434;-94
2022/08/08 06:13:07;;;;;;;4.13;2.80;;;16.70;99.90;;;;;;4946233;28;20975;-92
2022/08/08 06:15:34;;;;;;;3.37;3.07;;;16.80;99.90;;;;;;4945843;28;20437;-92
2022/08/08 06:18:00;;;;;;;3.20;3.00;;;16.80;99.90;;;;;;4931219;28;20506;-91
2022/08/08 06:20:26;;;;;;;3.10;2.90;;;16.70;99.90;;;;;;4932364;28;20850;-91
2022/08/08 06:22:52;;;;;;;3.77;3.47;;;16.50;99.90;;;;;;4927755;28;20469;-92
2022/08/08 06:25:17;;;;;;;5.20;3.20;;;16.60;99.90;;;;;;4945472;28;20231;-92
2022/08/08 06:27:52;;;;;;;3.40;3.20;;;16.80;99.90;;;;;;4930534;28;20450;-91
2022/08/08 06:30:21;;;;;;;3.60;3.13;;;16.70;99.90;;;;;;4942833;28;20211;-92
2022/08/08 06:32:54;;;;;;;3.10;2.90;;;16.80;99.90;;;;;;4932580;28;20438;-92
2022/08/08 06:35:19;;;;;;;3.13;2.93;;;17.00;99.90;;;;;;4946254;28;20447;-92
2022/08/08 06:37:48;;;;;;;3.63;3.33;;;17.20;99.90;;;;;;4925011;28;20466;-91
2022/08/08 06:40:15;;;;;;;4.30;3.17;;;17.20;99.90;;;;;;4943971;28;20533;-92
2022/08/08 06:42:47;;;;;;;3.23;2.80;;;17.20;99.90;;;;;;4931369;29;20770;-92
2022/08/08 06:45:13;;;;;;;3.27;2.97;;;17.30;99.90;;;;;;4947483;28;20844;-92
2022/08/08 06:47:40;;;;;;;3.93;2.97;;;17.50;99.90;;;;;;4925880;28;20450;-92
2022/08/08 06:50:06;;;;;;;4.20;3.40;;;17.70;99.90;;;;;;4925856;28;20426;-92
2022/08/08 06:52:33;;;;;;;3.60;3.20;;;17.80;99.70;;;;;;4946042;28;20594;-93
2022/08/08 06:55:00;;;;;;;3.33;3.10;;;17.90;99.90;;;;;;4928131;28;20488;-92
2022/08/08 06:57:26;;;;;;;3.20;3.00;;;18.00;99.90;;;;;;4926776;28;20425;-92
2022/08/08 06:59:52;;;;;;;3.93;3.33;;;18.10;99.80;;;;;;4950458;28;20965;-92
2022/08/08 07:02:26;;;;;;;3.70;3.50;;;18.20;99.90;;;;;;4932411;28;20434;-92
2022/08/08 07:04:54;;;;;;;3.63;3.40;;;18.30;99.90;;;;;;4943409;28;20848;-92
2022/08/08 07:07:35;;;;;;;3.20;3.00;;;18.50;99.90;;;;;;4935683;28;20540;-91
2022/08/08 07:10:06;;;;;;;3.43;3.17;;;18.80;99.90;;;;;;4932973;29;20956;-93
2022/08/08 07:12:52;;;;;;;3.17;2.97;;;18.90;99.90;;;;;;4927032;28;20438;-92
2022/08/08 07:15:31;;;;;;;3.90;3.57;;;19.10;99.90;;;;;;4925976;28;20555;-92
2022/08/08 07:18:03;;;;;;;3.60;3.30;;;19.20;99.80;;;;;;4945278;28;20471;-92
2022/08/08 07:20:34;;;;;;;3.57;3.37;;;19.20;99.90;;;;;;4942908;28;20533;-92
2022/08/08 07:23:10;;;;;;;4.83;3.67;;;19.30;99.90;;;;;;4929533;29;20426;-92
2022/08/08 07:25:58;;;;;;;3.70;3.40;;;19.40;99.90;;;;;;4945861;28;20473;-92
2022/08/08 07:28:25;;;;;;;4.20;3.90;;;19.50;99.90;;;;;;4929342;28;20446;-91
2022/08/08 07:31:07;;;;;;;3.63;3.33;;;19.70;99.90;;;;;;4944148;28;20449;-91
2022/08/08 07:33:37;;;;;;;4.17;3.87;;;19.90;99.90;;;;;;4942073;28;20450;-92
2022/08/08 07:36:07;;;;;;;4.07;3.23;;;20.10;99.90;;;;;;4947631;28;20449;-92
2022/08/08 07:38:38;;;;;;;3.63;3.33;;;20.30;99.90;;;;;;4937909;28;20487;-91
2022/08/08 07:41:06;;;;;;;3.13;2.93;;;20.50;99.40;;;;;;4931539;28;21026;-91
2022/08/08 07:43:33;;;;;;;3.80;3.40;;;20.60;99.30;;;;;;4932406;29;20442;-91
2022/08/08 07:45:58;;;;;;;3.77;3.47;;;20.60;98.90;;;;;;4942888;28;20446;-92
2022/08/08 07:48:24;;;;;;;3.50;3.30;;;20.50;99.10;;;;;;4932632;28;20960;-91
2022/08/08 07:50:52;;;;;;;3.97;3.60;;;20.50;98.70;;;;;;4941254;28;20250;-91
2022/08/08 07:53:21;;;;;;;3.57;3.37;;;20.80;99.10;;;;;;4930079;28;20451;-93
2022/08/08 07:55:52;;;;;;;3.93;3.57;;;20.60;99.50;;;;;;4948252;28;20423;-91
2022/08/08 07:58:31;;;;;;;4.00;3.73;;;20.90;99.40;;;;;;4930324;29;20477;-92
2022/08/08 08:01:09;;;;;;;4.47;3.70;;;21.20;98.80;;;;;;4924951;29;20449;-91
2022/08/08 08:03:46;;;;;;;3.77;3.40;;;21.40;98.20;;;;;;4937919;28;20447;-91
2022/08/08 08:06:13;;;;;;;3.87;3.53;;;21.70;97.90;;;;;;4937583;28;20440;-91
2022/08/08 08:08:52;;;;;;;3.67;3.37;;;21.90;97.50;;;;;;4939786;28;20475;-91
2022/08/08 08:11:20;;;;;;;3.57;3.30;;;21.90;96.80;;;;;;4932585;28;20454;-92
2022/08/08 08:13:52;;;;;;;3.63;3.30;;;22.10;96.50;;;;;;4929691;28;20469;-91
2022/08/08 08:16:23;;;;;;;4.10;3.20;;;22.20;96.10;;;;;;4929062;28;20430;-91
2022/08/08 08:18:58;;;;;;;3.77;3.47;;;22.10;95.60;;;;;;4929606;28;20486;-92
2022/08/08 08:21:39;;;;;;;4.03;3.73;;;22.20;96.30;;;;;;4943527;28;20432;-91
2022/08/08 08:24:05;;;;;;;4.07;3.87;;;22.30;96.50;;;;;;4937308;28;20446;-91
2022/08/08 08:26:30;;;;;;;4.10;3.70;;;22.40;95.60;;;;;;4930895;28;20979;-92
2022/08/08 08:28:56;;;;;;;3.40;3.20;;;22.50;94.70;;;;;;4948416;28;20449;-92
2022/08/08 08:31:22;;;;;;;3.70;3.50;;;22.60;95.10;;;;;;4933157;28;20191;-91
2022/08/08 08:33:47;;;;;;;3.77;3.57;;;22.80;94.40;;;;;;4943964;28;20318;-91
2022/08/08 08:36:14;;;;;;;5.00;3.57;;;22.80;95.00;;;;;;4947027;28;20198;-92
2022/08/08 08:38:40;;;;;;;3.90;3.60;;;22.90;93.60;;;;;;4932416;29;20203;-92
2022/08/08 08:41:07;;;;;;;3.83;3.53;;;23.10;94.50;;;;;;4947525;28;20425;-92
2022/08/08 08:43:34;;;;;;;4.30;3.90;;;23.50;94.30;;;;;;4932389;28;20449;-92
2022/08/08 08:46:01;;;;;;;6.00;3.70;;;23.50;93.70;;;;;;4946257;28;20449;-91
2022/08/08 08:48:27;;;;;;;4.97;3.80;;;23.70;93.60;;;;;;4928576;28;20488;-92
2022/08/08 08:50:54;;;;;;;4.23;3.83;;;24.40;93.20;;;;;;4931038;28;20438;-92
2022/08/08 08:53:21;;;;;;;3.80;3.60;;;23.60;91.40;;;;;;4932403;28;20831;-91
2022/08/08 08:55:48;;;;;;;4.43;4.13;;;23.70;94.10;;;;;;4931282;28;20447;-93
2022/08/08 08:58:35;;;;;;;4.07;3.87;;;23.80;93.60;;;;;;4947922;28;20474;-91
2022/08/08 09:01:03;;;;;;;5.20;3.63;;;24.00;93.60;;;;;;4929650;28;20677;-92
2022/08/08 09:03:29;;;;;;;3.43;3.23;;;24.00;92.70;;;;;;4929512;29;20465;-92
2022/08/08 09:05:56;;;;;;;3.40;3.20;;;24.20;92.50;;;;;;4950252;28;20510;-91
2022/08/08 09:08:23;;;;;;;3.60;3.40;;;24.10;92.90;;;;;;4931540;28;20443;-92
2022/08/08 09:10:52;;;;;;;4.00;3.80;;;24.00;93.20;;;;;;4929299;28;20483;-92
2022/08/08 09:13:36;;;;;;;3.60;3.30;;;24.00;91.90;;;;;;4950970;28;20435;-92
2022/08/08 09:16:02;;;;;;;3.87;3.33;;;24.20;92.70;;;;;;4947338;28;20436;-92
2022/08/08 09:18:31;;;;;;;3.40;3.20;;;24.30;91.20;;;;;;4932533;28;20751;-92
2022/08/08 09:21:03;;;;;;;4.03;3.73;;;24.60;90.00;;;;;;4946416;28;20444;-91
2022/08/08 09:23:30;;;;;;;4.20;3.60;;;24.70;90.10;;;;;;4945405;28;20454;-94
2022/08/08 09:26:25;;;;;;;4.07;3.77;;;24.70;91.70;;;;;;4945668;28;20447;-92
2022/08/08 09:29:03;;;;;;;3.73;3.40;;;24.80;91.30;;;;;;4947323;28;20448;-92
2022/08/08 09:31:59;;;;;;;4.13;3.10;;;24.90;90.80;;;;;;4918748;28;20963;-90
2022/08/08 09:34:29;;;;;;;3.70;3.50;;;24.90;89.50;;;;;;4947875;28;20451;-92
2022/08/08 09:37:07;;;;;;;3.40;3.20;;;25.10;90.10;;;;;;4938632;28;20517;-90
2022/08/08 09:39:59;;;;;;;3.97;3.60;;;25.10;88.30;;;;;;4945257;28;20529;-93
2022/08/08 09:42:36;;;;;;;4.00;3.70;;;25.30;86.40;;;;;;4947448;28;20442;-91
2022/08/08 09:45:07;;;;;;;3.90;3.60;;;25.20;88.60;;;;;;4938649;28;20438;-93
2022/08/08 09:47:41;;;;;;;3.90;3.70;;;25.20;86.50;;;;;;4930395;28;20779;-92
2022/08/08 09:50:17;;;;;;;3.73;3.43;;;25.40;89.40;;;;;;4947050;28;20514;-93
2022/08/08 09:52:53;;;;;;;3.20;3.00;;;25.40;79.70;;;;;;4948135;28;20473;-93
2022/08/08 09:55:20;;;;;;;3.63;3.33;;;25.40;82.50;;;;;;4949612;28;20963;-93
2022/08/08 09:57:49;;;;;;;3.80;3.60;;;25.50;84.80;;;;;;4930398;28;20474;-93
2022/08/08 10:00:20;;;;;;;3.27;3.07;;;25.50;85.30;;;;;;4929867;28;21743;-92
2022/08/08 10:02:48;;;;;;;3.63;2.97;;;25.50;80.90;;;;;;4948424;28;20430;-93
2022/08/08 10:05:17;;;;;;;2.73;2.60;;;25.80;81.70;;;;;;4944707;28;20534;-93
2022/08/08 10:07:51;;;;;;;5.50;3.03;;;26.00;80.40;;;;;;4948964;28;20435;-93
2022/08/08 10:10:28;;;;;;;3.23;3.03;;;25.80;75.90;;;;;;4945736;28;20446;-93
2022/08/08 10:12:54;;;;;;;2.93;2.73;;;25.80;78.90;;;;;;4946095;28;20433;-92
2022/08/08 10:15:22;;;;;;;3.53;2.90;;;25.90;79.00;;;;;;4941861;28;20431;-93
2022/08/08 10:17:50;;;;;;;3.00;2.80;;;25.90;78.30;;;;;;4943354;28;20446;-94
2022/08/08 10:20:16;;;;;;;2.67;2.53;;;26.10;78.80;;;;;;4947983;28;20447;-92
2022/08/08 10:22:59;;;;;;;3.10;2.90;;;26.00;78.70;;;;;;4948480;28;21249;-93
2022/08/08 10:25:26;;;;;;;3.10;2.90;;;26.20;76.80;;;;;;4929553;28;20466;-92
2022/08/08 10:27:54;;;;;;;3.90;3.60;;;26.40;75.60;;;;;;4931640;29;20766;-93
2022/08/08 10:30:21;;;;;;;3.30;3.03;;;26.30;74.40;;;;;;4931442;28;20442;-93
2022/08/08 10:33:08;;;;;;;3.00;2.80;;;26.10;76.00;;;;;;4931733;29;20529;-92
2022/08/08 10:35:34;;;;;;;3.37;3.13;;;26.30;74.80;;;;;;4948566;28;20438;-93
2022/08/08 10:38:04;;;;;;;2.73;2.53;;;26.30;76.70;;;;;;4942672;28;20497;-93
2022/08/08 10:40:31;;;;;;;2.80;2.60;;;26.50;74.10;;;;;;4939446;28;20278;-95
2022/08/08 10:43:03;;;;;;;3.57;3.27;;;26.60;76.10;;;;;;4930420;29;20423;-95
2022/08/08 10:45:41;;;;;;;3.43;3.20;;;26.90;72.50;;;;;;4945870;28;21102;-95
2022/08/08 10:48:10;;;;;;;3.30;3.00;;;27.30;75.20;;;;;;4945523;28;20457;-94
2022/08/08 10:50:37;;;;;;;3.20;3.00;;;27.60;72.30;;;;;;4932561;28;20536;-95
2022/08/08 10:53:08;;;;;;;2.97;2.80;;;27.50;69.00;;;;;;4948830;28;20526;-94
2022/08/08 10:55:39;;;;;;;2.97;2.87;;;27.20;70.00;;;;;;4944653;28;20442;-93
2022/08/08 10:58:09;;;;;;;2.90;2.73;;;27.50;71.60;;;;;;4934020;28;20418;-93
2022/08/08 11:00:44;;;;;;;3.30;3.10;;;27.50;70.80;;;;;;4931717;28;20435;-93
2022/08/08 11:03:13;;;;;;;3.10;2.90;;;27.80;71.50;;;;;;4948853;28;20438;-94
2022/08/08 11:05:48;;;;;;;2.77;2.57;;;27.80;70.70;;;;;;4933067;28;20446;-94
2022/08/08 11:08:22;;;;;;;3.10;3.00;;;27.80;68.30;;;;;;4945390;28;20442;-94
2022/08/08 11:10:48;;;;;;;3.33;3.10;;;28.10;69.80;;;;;;4914805;28;20490;-94
2022/08/08 11:13:20;;;;;;;3.33;3.13;;;28.00;64.80;;;;;;4943717;28;20478;-93
2022/08/08 11:15:46;;;;;;;3.83;3.00;;;28.30;65.10;;;;;;4931118;28;20186;-93
2022/08/08 11:18:13;;;;;;;3.30;3.10;;;28.70;61.90;;;;;;4946067;28;20521;-93
2022/08/08 11:20:40;;;;;;;3.00;2.80;;;29.00;67.60;;;;;;4928462;29;20478;-92
2022/08/08 11:23:07;;;;;;;3.20;3.00;;;29.10;65.00;;;;;;4944890;28;20437;-93
2022/08/08 11:25:33;;;;;;;3.00;2.80;;;28.80;64.50;;;;;;4927602;28;20446;-93
2022/08/08 11:28:03;;;;;;;3.40;3.20;;;28.70;66.70;;;;;;4928539;28;20446;-93
2022/08/08 11:30:31;;;;;;;3.00;2.80;;;28.80;65.00;;;;;;4930877;28;20477;-92
2022/08/08 11:33:03;;;;;;;3.13;2.80;;;29.10;64.70;;;;;;4945914;28;20443;-92
2022/08/08 11:35:29;;;;;;;3.27;3.07;;;29.30;62.50;;;;;;4943859;28;20502;-93
2022/08/08 11:37:55;;;;;;;3.07;2.87;;;29.30;63.20;;;;;;4946943;28;20437;-93
2022/08/08 11:40:21;;;;;;;2.90;2.70;;;29.60;62.60;;;;;;4926144;29;20545;-92
2022/08/08 11:42:49;;;;;;;2.97;2.77;;;29.80;61.00;;;;;;4925788;29;20722;-92
2022/08/08 11:45:15;;;;;;;2.87;2.73;;;29.60;58.00;;;;;;4944476;28;20186;-93
2022/08/08 11:47:41;;;;;;;2.97;2.60;;;28.60;62.10;;;;;;4942188;28;20449;-93
2022/08/08 11:50:12;;;;;;;2.87;2.77;;;28.30;62.40;;;;;;4941389;28;20191;-93
2022/08/08 11:52:39;;;;;;;2.87;2.67;;;28.60;65.10;;;;;;4946597;28;20430;-94
2022/08/08 11:55:16;;;;;;;2.47;2.37;;;29.00;63.30;;;;;;4941561;28;20502;-93
2022/08/08 11:57:44;;;;;;;2.80;2.60;;;29.40;56.80;;;;;;4931613;29;20878;-92
2022/08/08 12:00:16;;;;;;;2.80;2.60;;;29.70;57.10;;;;;;4945956;28;21158;-93
2022/08/08 12:02:47;;;;;;;2.43;2.30;;;30.00;52.60;;;;;;4926583;29;20439;-92
2022/08/08 12:05:13;;;;;;;2.87;2.60;;;29.80;52.10;;;;;;4945446;28;21132;-92
2022/08/08 12:07:47;;;;;;;2.80;2.60;;;29.60;56.30;;;;;;4942486;28;20994;-93
2022/08/08 12:10:15;;;;;;;3.90;3.00;;;29.20;59.90;;;;;;4927100;28;20179;-93
2022/08/08 12:12:42;;;;;;;2.93;2.73;;;29.10;58.60;;;;;;4928872;28;20453;-93
2022/08/08 12:15:08;;;;;;;2.97;2.77;;;29.40;56.20;;;;;;4930406;28;20476;-93
2022/08/08 12:17:35;;;;;;;3.07;2.87;;;29.60;60.00;;;;;;4929830;28;20524;-93
2022/08/08 12:20:03;;;;;;;2.63;2.50;;;29.60;56.20;;;;;;4942425;28;20293;-93
2022/08/08 12:22:31;;;;;;;3.30;3.00;;;29.50;56.20;;;;;;4932738;29;20446;-92
2022/08/08 12:25:00;;;;;;;2.80;2.70;;;29.60;57.20;;;;;;4925500;28;20454;-93
2022/08/08 12:27:36;;;;;;;2.47;2.37;;;29.80;57.90;;;;;;4944929;28;20441;-94
2022/08/08 12:30:05;;;;;;;2.90;2.63;;;29.70;56.60;;;;;;4944441;28;20229;-92
2022/08/08 12:32:48;;;;;;;2.80;2.70;;;29.90;55.80;;;;;;4947349;28;20447;-95
2022/08/08 12:35:21;;;;;;;2.77;2.57;;;29.80;54.20;;;;;;4924926;28;20434;-93
2022/08/08 12:38:01;;;;;;;2.63;2.43;;;30.20;56.10;;;;;;4943039;28;20443;-94
2022/08/08 12:40:36;;;;;;;2.47;2.37;;;30.10;56.20;;;;;;4943248;28;20718;-93
2022/08/08 12:43:01;;;;;;;2.70;2.50;;;30.20;54.50;;;;;;4947938;28;20418;-93
2022/08/08 12:45:39;;;;;;;3.80;1.87;;;30.40;52.90;;;;;;4925700;28;20453;-94
2022/08/08 12:48:20;;;;;;;2.60;2.40;;;30.60;52.30;;;;;;4944168;28;20198;-92
2022/08/08 12:50:48;;;;;;;2.70;2.50;;;29.90;50.60;;;;;;4926933;29;20434;-93
2022/08/08 12:53:28;;;;;;;2.80;2.60;;;28.60;52.00;;;;;;4926360;28;20468;-91
2022/08/08 12:55:54;;;;;;;2.97;2.73;;;28.10;53.20;;;;;;4922699;29;20485;-93
2022/08/08 12:58:27;;;;;;;3.30;3.10;;;28.10;52.40;;;;;;4933090;28;20463;-93
2022/08/08 13:00:53;;;;;;;4.10;2.70;;;28.20;53.20;;;;;;4931199;29;20219;-93
2022/08/08 13:03:32;;;;;;;2.90;2.53;;;28.70;58.00;;;;;;4948249;28;20484;-93
2022/08/08 13:06:09;;;;;;;2.20;2.10;;;29.20;54.20;;;;;;4913515;28;20444;-94
2022/08/08 13:08:50;;;;;;;2.17;2.07;;;29.50;53.90;;;;;;4941655;28;21077;-94
2022/08/08 13:11:19;;;;;;;2.57;2.37;;;30.00;49.30;;;;;;4945266;28;20505;-93
2022/08/08 13:14:11;;;;;;;2.40;2.23;;;30.00;49.60;;;;;;4942002;28;20443;-94
2022/08/08 13:16:38;;;;;;;2.60;2.40;;;29.90;54.70;;;;;;4947795;28;20434;-94
2022/08/08 13:19:08;;;;;;;2.90;2.57;;;30.00;53.60;;;;;;4945384;28;20490;-93
2022/08/08 13:21:45;;;;;;;2.10;2.00;;;29.50;51.10;;;;;;4933996;28;21040;-94
2022/08/08 13:24:11;;;;;;;2.80;1.90;;;29.80;54.70;;;;;;4935386;28;20489;-94
2022/08/08 13:26:37;;;;;;;2.10;2.00;;;30.10;49.30;;;;;;4935694;28;20936;-94
2022/08/08 13:29:11;;;;;;;4.17;1.63;;;30.40;51.50;;;;;;4934646;29;20438;-96
2022/08/08 13:31:50;;;;;;;2.00;1.80;;;30.80;48.00;;;;;;4931396;28;20479;-94
2022/08/08 13:34:24;;;;;;;1.90;1.80;;;30.80;50.30;;;;;;4926963;29;20989;-92
2022/08/08 15:54:50;;;;;;;1.50;1.40;;;34.20;37.20;;;;;;4960708;28;20268;-90
2022/08/08 15:57:25;;;;;;;1.90;1.67;;;34.20;34.30;;;;;;4953399;28;20204;-91
2022/08/08 15:59:51;;;;;;;1.87;1.70;;;33.40;34.40;;;;;;4952241;28;20217;-94